Weather at Airduce Heliport

Public forecast

Using degrees Fahrenheit for public forecast. Weather courtesy of forecast.io.

Closest aviation weather report (METAR) to Airduce Heliport

Closest report is Langley Air Force Base, 21.8 nm (40.4 km) WSW. Retrieved 2020/11/30 18:56 UTC (42 minutes ago):

KLFI 301856Z AUTO 18015G21KT 9SM BKN038 BKN044 BKN050 24/19 A2940 RMK AO2 PK WND 19027/16 SLP962 T02370194

Closest aviation forecast (TAF) to Airduce Heliport

Closest forecast is Langley Air Force Base, 21.8 nm (40.4 km) WSW. Retrieved 2020/11/30 18:00 UTC (2 hours ago):

TAF KLFI 301800Z 3018/0124 19015G25KT 9999 SCT020 BKN035 QNH2939INS TEMPO 3018/3021 22025G35KT 6000 -SHRA VCTS BKN005 BKN010CB BECMG 3023/3024 25015G20KT 9999 BKN015 QNH2937INS BECMG 0112/0113 27015G25KT 9999 BKN050 QNH2945INS TX24/3019Z TN07/0110Z